Latest Weather Observations for Condobolin Airport

IDN60801

Issued at 10:32 pm EST Thursday 20 September 2018 (issued every 10 minutes, with the page automatically refreshed every 10 minutes)

About weather observations | Map of weather stations | Latest weather observations for NSW | Other Formats
Station Details ID: 050137 Name: CONDOBOLIN AIRPORT AWS Lat: -33.07 Lon: 147.21 Height: 192.6 m
Data from the previous 72 hours. | See also: Recent months at Condobolin Airport
Date/Time
EST
Temp
°C
App
Temp
°C
Dew
Point
°C
Rel
Hum
%
Delta-T
°C
Wind Press
QNH
hPa
Press
MSL
hPa
Rain since
9am
mm
Dir  Spd
km/h
Gust
km/h
Spd
kts
Gust
kts
20/10:30pm 8.4 4.1 -4.7 39 4.6 NW 9 13 5 7 1025.3 1025.2 0.0
20/10:00pm 9.6 5.8 -4.0 38 5.0 W 7 9 4 5 1025.3 1025.2 0.0
20/09:30pm 9.9 5.4 -3.4 39 5.0 WNW 11 13 6 7 1025.0 1024.9 0.0
20/09:00pm 10.8 7.9 -4.0 35 5.5 W 2 7 1 4 1024.4 1024.4 0.0
20/08:30pm 11.2 7.5 -4.1 34 5.7 SSW 6 7 3 4 1024.0 1024.0 0.0
20/08:00pm 12.5 8.3 -3.7 32 6.2 SW 9 9 5 5 1023.6 1023.6 0.0
20/07:30pm 12.8 8.2 -3.9 31 6.4 SW 11 11 6 6 1023.1 1023.1 0.0
20/07:00pm 13.7 9.6 -3.1 31 6.6 SW 9 13 5 7 1022.7 1022.7 0.0
20/06:30pm 14.4 9.5 -3.4 29 7.0 SW 13 15 7 8 1022.2 1022.1 0.0
20/06:00pm 17.1 11.5 -3.1 25 8.2 SW 17 20 9 11 1021.9 1021.8 0.0
20/05:30pm 18.0 11.7 -4.0 22 8.9 SW 20 26 11 14 1021.6 1021.5 0.0
20/05:00pm 18.1 11.8 -3.9 22 8.9 SW 20 28 11 15 1021.2 1021.1 0.0
20/04:30pm 18.5 12.0 -5.5 19 9.4 SW 20 32 11 17 1020.8 1020.7 0.0
20/04:00pm 18.9 11.3 -5.2 19 9.5 SW 26 39 14 21 1020.5 1020.4 0.0
20/03:30pm 19.8 13.0 -5.2 18 10.0 SW 22 35 12 19 1020.3 1020.2 0.0
20/03:00pm 19.6 13.5 -3.9 20 9.6 SW 19 30 10 16 1020.3 1020.2 0.0
20/02:30pm 18.9 12.7 -5.2 19 9.6 WSW 19 28 10 15 1020.3 1020.2 0.0
20/02:00pm 18.9 12.7 -4.5 20 9.4 WSW 19 28 10 15 1020.3 1020.2 0.0
20/01:30pm 19.4 14.9 -3.5 21 9.5 SSW 11 26 6 14 1020.5 1020.4 0.0
20/01:00pm 18.5 12.8 -3.6 22 9.0 SW 17 26 9 14 1020.8 1020.7 0.0
20/12:30pm 18.8 12.8 -3.3 22 9.1 SW 19 32 10 17 1021.1 1021.0 0.0
20/12:00pm 18.1 12.1 -3.3 23 8.7 W 19 32 10 17 1021.4 1021.3 0.0
20/11:30am 18.2 12.1 -2.7 24 8.7 SW 20 35 11 19 1021.6 1021.5 0.0
20/11:00am 15.9 10.6 -3.6 26 7.7 SW 15 22 8 12 1021.7 1021.6 0.0
20/10:30am 15.6 10.8 -2.8 28 7.4 SW 13 20 7 11 1021.8 1021.7 0.0
20/10:00am 14.8 10.4 -2.6 30 7.0 WSW 11 17 6 9 1021.8 1021.7 0.0
20/09:30am 14.5 10.1 -2.8 30 6.9 WSW 11 26 6 14 1021.7 1021.6 0.0
20/09:00am 13.9 10.3 -2.1 33 6.4 WSW 7 11 4 6 1021.5 1021.4 0.0
20/08:30am 12.1 8.4 -2.5 36 5.7 SW 7 9 4 5 1021.3 1021.2 0.0
20/08:00am 10.4 6.9 -2.6 40 5.0 W 6 7 3 4 1021.1 1021.0 0.0
20/07:30am 9.3 5.6 -2.6 43 4.5 WNW 7 9 4 5 1020.8 1020.7 0.0
20/07:00am 8.3 4.6 -2.9 45 4.2 WNW 7 11 4 6 1020.4 1020.3 0.0
20/06:30am 7.3 3.2 -3.0 48 3.8 WNW 9 11 5 6 1020.0 1019.9 0.0
20/06:00am 5.6 1.8 -3.7 51 3.3 WNW 7 13 4 7 1019.7 1019.6 0.0
20/05:30am 3.8 -0.5 -4.6 54 2.8 WNW 9 15 5 8 1019.1 1019.1 0.0
20/05:00am 2.8 0.1 -6.1 52 3.0 CALM 0 2 0 1 1018.5 1018.5 0.0
20/04:30am 2.8 -1.2 -6.1 52 3.0 WNW 7 9 4 5 1018.2 1018.2 0.0
20/04:00am 3.0 -0.5 -5.9 52 2.9 WNW 4 7 2 4 1017.8 1017.7 0.0
20/03:30am 2.9 -1.1 -6.0 52 2.9 NW 7 9 4 5 1017.5 1017.4 0.0
20/03:00am 2.7 0.0 -6.4 51 3.0 CALM 0 0 0 0 1017.5 1017.4 0.0
20/02:30am 3.7 1.0 -5.7 50 3.1 CALM 0 0 0 0 1017.4 1017.3 0.0
20/02:00am 4.8 2.2 -4.5 51 3.2 CALM 0 0 0 0 1017.5 1017.4 0.0
20/01:30am 4.4 1.7 -5.6 48 3.3 CALM 0 0 0 0 1017.6 1017.5 0.0
20/01:00am 6.2 3.7 -3.7 49 3.5 CALM 0 0 0 0 1017.8 1017.7 0.0
20/12:30am 5.7 1.8 -5.0 46 3.7 WSW 7 9 4 5 1018.0 1018.0 0.0
20/12:00am 6.2 1.5 -4.8 45 3.8 WSW 11 13 6 7 1018.0 1018.0 0.0
 
Date/Time
EST
Temp
°C
App
Temp
°C
Dew
Point
°C
Rel
Hum
%
Delta-T
°C
Wind Press
QNH
hPa
Press
MSL
hPa
Rain since
9am
mm
Dir  Spd
km/h
Gust
km/h
Spd
kts
Gust
kts
19/11:30pm 6.4 2.5 -4.9 44 3.9 W 7 9 4 5 1017.8 1017.7 0.0
19/11:00pm 7.5 4.9 -5.2 40 4.4 CALM 0 0 0 0 1017.8 1017.7 0.0
19/10:30pm 7.3 3.5 -5.4 40 4.4 W 6 7 3 4 1017.8 1017.7 0.0
19/10:00pm 7.5 3.5 -5.5 39 4.5 WSW 7 9 4 5 1017.6 1017.5 0.0
19/09:30pm 8.2 4.1 -6.3 35 5.0 WSW 7 9 4 5 1017.5 1017.4 0.0
19/09:00pm 9.4 5.0 -6.0 33 5.4 W 9 11 5 6 1017.3 1017.2 0.0
19/08:30pm 10.6 6.2 -6.2 30 5.9 WSW 9 11 5 6 1016.9 1016.8 0.0
19/08:00pm 11.2 6.4 -6.2 29 6.2 SW 11 13 6 7 1016.7 1016.6 0.0
19/07:30pm 12.4 6.8 -6.5 26 6.8 SW 15 17 8 9 1016.3 1016.2 0.0
19/07:00pm 12.9 6.9 -6.6 25 7.0 SW 17 20 9 11 1016.0 1015.9 0.0
19/06:30pm 13.8 8.1 -7.5 22 7.6 SW 15 19 8 10 1015.5 1015.4 0.0
19/06:00pm 15.6 9.0 -8.6 18 8.6 SSW 19 24 10 13 1015.1 1015.0 0.0
19/05:30pm 16.8 10.3 -7.6 18 9.0 SSW 19 32 10 17 1014.8 1014.7 0.0
19/05:00pm 17.6 10.9 -7.7 17 9.4 SSW 20 30 11 16 1014.3 1014.2 0.0
19/04:30pm 18.1 10.6 -8.9 15 9.9 SW 24 37 13 20 1013.9 1013.9 0.0
19/04:00pm 18.8 12.1 -7.5 16 10.0 SW 20 33 11 18 1013.8 1013.8 0.0
19/03:30pm 19.1 11.4 -6.5 17 9.9 WSW 26 33 14 18 1013.7 1013.7 0.0
19/03:14pm 18.7 10.6 -6.8 17 9.8 WSW 28 46 15 25 1013.6 1013.6 0.0
19/03:00pm 18.7 11.4 -6.1 18 9.7 WSW 24 35 13 19 1013.6 1013.6 0.0
19/02:30pm 18.9 11.0 -8.3 15 10.1 SW 26 35 14 19 1013.7 1013.7 0.0
19/02:00pm 19.2 11.5 -6.4 17 10.0 WSW 26 37 14 20 1013.8 1013.8 0.0
19/01:30pm 18.8 11.0 -4.0 21 9.3 WSW 28 41 15 22 1014.2 1014.1 0.0
19/01:00pm 18.6 10.8 -3.5 22 9.1 WSW 28 39 15 21 1014.4 1014.3 0.0
19/12:30pm 17.9 11.4 -2.4 25 8.5 SW 22 39 12 21 1014.4 1014.3 0.0
19/12:00pm 18.3 10.8 -1.5 26 8.4 SW 28 41 15 22 1014.8 1014.7 0.0
19/11:30am 17.8 10.9 0.0 30 7.8 SW 26 43 14 23 1015.0 1014.9 0.0
19/11:00am 16.9 10.4 0.1 32 7.3 SW 24 35 13 19 1015.0 1014.9 0.0
19/10:30am 16.7 9.8 -0.1 32 7.3 SW 26 35 14 19 1015.0 1014.9 0.0
19/10:00am 15.9 8.6 -0.3 33 6.9 SW 28 35 15 19 1015.2 1015.1 0.0
19/09:30am 15.2 8.4 0.6 37 6.3 SW 26 39 14 21 1015.3 1015.2 0.0
19/09:00am 14.2 7.5 1.2 41 5.6 SW 26 37 14 20 1015.2 1015.1 0.0
19/08:30am 14.4 6.8 0.6 39 5.9 SW 30 39 16 21 1014.8 1014.7 0.0
19/08:00am 13.7 5.9 1.4 43 5.3 SW 32 39 17 21 1014.5 1014.4 0.0
19/07:30am 12.8 7.0 4.3 56 3.9 SSW 24 35 13 19 1013.9 1013.9 0.0
19/07:00am 13.2 7.0 4.4 55 4.1 SW 26 33 14 18 1013.5 1013.4 0.0
19/06:30am 13.8 7.5 3.9 51 4.5 SW 26 35 14 19 1012.9 1012.8 0.0
19/06:00am 14.5 8.8 2.7 45 5.3 SW 22 28 12 15 1012.4 1012.3 0.0
19/05:30am 14.6 9.5 0.8 39 6.0 SW 17 20 9 11 1012.0 1011.9 0.0
19/05:00am 14.8 8.8 -1.7 32 6.8 WSW 20 28 11 15 1011.3 1011.2 0.0
19/04:30am 15.5 8.5 -7.3 20 8.3 WSW 22 28 12 15 1010.6 1010.5 0.0
19/04:00am 16.1 9.8 -10.5 15 9.2 WNW 17 22 9 12 1010.1 1010.0 0.0
19/03:30am 16.5 9.6 -10.2 15 9.3 WNW 20 39 11 21 1009.6 1009.5 0.0
19/03:00am 15.6 12.5 -10.9 15 9.0 CALM 0 0 0 0 1008.9 1008.7 0.0
19/02:30am 16.4 13.3 -10.3 15 9.3 CALM 0 7 0 4 1009.3 1009.2 0.0
19/02:00am 15.6 11.3 -9.3 17 8.8 NNW 7 13 4 7 1009.9 1009.8 0.0
19/01:30am 14.3 10.9 -9.7 18 8.2 ENE 2 7 1 4 1010.6 1010.5 0.0
19/01:00am 12.2 8.9 -8.9 22 7.2 ENE 2 6 1 3 1011.0 1010.9 0.0
19/12:30am 12.8 9.8 -9.6 20 7.5 CALM 0 0 0 0 1011.5 1011.4 0.0
19/12:00am 13.5 9.3 -9.6 19 7.9 E 6 7 3 4 1011.6 1011.5 0.0
 
Date/Time
EST
Temp
°C
App
Temp
°C
Dew
Point
°C
Rel
Hum
%
Delta-T
°C
Wind Press
QNH
hPa
Press
MSL
hPa
Rain since
9am
mm
Dir  Spd
km/h
Gust
km/h
Spd
kts
Gust
kts
18/11:30pm 14.5 10.3 -10.2 17 8.4 W 6 7 3 4 1012.1 1012.0 0.0
18/11:00pm 16.5 12.1 -10.2 15 9.3 NNW 7 9 4 5 1011.7 1011.6 0.0
18/10:30pm 16.9 11.3 -10.7 14 9.6 N 13 15 7 8 1012.1 1012.0 0.0
18/10:00pm 17.1 10.3 -9.7 15 9.5 N 20 22 11 12 1012.2 1012.1 0.0
18/09:30pm 14.9 10.0 -11.5 15 8.8 N 9 13 5 7 1012.4 1012.3 0.0
18/09:00pm 17.1 10.5 -9.7 15 9.5 N 19 20 10 11 1012.4 1012.3 0.0
18/08:30pm 14.8 8.5 -10.0 17 8.5 N 17 19 9 10 1012.4 1012.3 0.0
18/08:00pm 14.7 10.3 -10.8 16 8.6 WNW 7 9 4 5 1012.5 1012.4 0.0
18/07:30pm 16.1 11.2 -11.4 14 9.3 NW 9 11 5 6 1012.3 1012.2 0.0
18/07:00pm 14.4 8.7 -12.7 14 8.7 N 13 17 7 9 1012.0 1011.9 0.0
18/06:30pm 19.5 13.9 -11.7 11 10.9 N 13 17 7 9 1011.8 1011.7 0.0
18/06:00pm 21.9 15.9 -11.1 10 12.1 NNW 15 20 8 11 1011.6 1011.5 0.0
18/05:30pm 24.4 17.5 -10.5 9 13.2 NNW 20 28 11 15 1011.5 1011.4 0.0
18/05:00pm 25.1 18.2 -10.0 9 13.6 NNW 20 28 11 15 1011.5 1011.4 0.0
18/04:30pm 25.3 17.7 -9.8 9 13.6 NNW 24 32 13 17 1011.6 1011.5 0.0
18/04:00pm 25.5 17.9 -9.7 9 13.7 NNW 24 39 13 21 1011.8 1011.7 0.0
18/03:30pm 26.0 17.7 -9.3 9 13.9 NNW 28 39 15 21 1012.0 1011.9 0.0
18/03:00pm 25.2 16.6 -8.5 10 13.4 NNW 30 39 16 21 1012.2 1012.1 0.0
18/02:30pm 25.2 17.3 -8.5 10 13.4 NNW 26 54 14 29 1012.5 1012.4 0.0
18/02:00pm 24.9 16.0 -7.5 11 13.1 NNW 32 41 17 22 1013.1 1013.0 0.0
18/01:30pm 24.7 16.9 -7.7 11 13.0 NNW 26 41 14 22 1013.7 1013.7 0.0
18/01:00pm 24.5 16.3 -7.9 11 12.9 N 28 43 15 23 1014.3 1014.2 0.0
18/12:30pm 23.5 14.9 -7.5 12 12.3 N 30 52 16 28 1015.1 1015.0 0.0
18/12:28pm 24.5 15.9 -7.9 11 12.9 N 30 52 16 28 1015.0 1014.9 0.0
18/12:00pm 24.0 15.1 -7.1 12 12.5 NNW 32 48 17 26 1015.7 1015.6 0.0
18/11:42am 23.1 14.5 -7.8 12 12.2 N 30 48 16 26 1016.0 1015.9 0.0
18/11:30am 22.5 13.5 -8.3 12 11.9 N 32 41 17 22 1016.4 1016.3 0.0
18/11:00am 21.5 13.7 -7.1 14 11.2 N 26 37 14 20 1017.0 1016.9 0.0
18/10:30am 21.1 13.4 -6.5 15 10.9 N 26 39 14 21 1017.6 1017.5 0.0
18/10:00am 21.1 13.9 -4.9 17 10.6 N 24 37 13 20 1017.9 1017.8 0.0
18/09:30am 19.3 12.5 -4.9 19 9.7 NNE 22 28 12 15 1018.4 1018.4 0.0
18/09:00am 18.1 11.9 -4.5 21 9.0 N 19 24 10 13 1018.7 1018.7 0.0
18/08:30am 16.6 10.9 -4.0 24 8.2 N 17 24 9 13 1018.9 1018.9 0.0
18/08:00am 15.2 8.6 -3.6 27 7.4 N 22 28 12 15 1018.8 1018.8 0.0
18/07:30am 12.9 9.1 -3.8 31 6.4 NNE 7 20 4 11 1019.0 1019.0 0.0
18/07:00am 9.8 6.1 -4.2 37 5.1 WNW 6 9 3 5 1018.9 1018.9 0.0
18/06:30am 7.4 3.1 -5.0 41 4.3 NNE 9 13 5 7 1018.5 1018.5 0.0
18/06:00am 8.2 2.0 -4.6 40 4.6 NNE 19 20 10 11 1018.2 1018.2 0.0
18/05:30am 7.9 1.8 -4.2 42 4.3 NNE 19 20 10 11 1018.0 1018.0 0.0
18/05:00am 7.8 1.7 -4.3 42 4.3 NNE 19 20 10 11 1017.8 1017.7 0.0
18/04:48am 8.6 2.6 -3.3 43 4.4 NNE 19 20 10 11 1017.6 1017.5 0.0
18/04:30am 3.6 -1.3 -6.6 47 3.3 NE 11 13 6 7 1017.5 1017.4 0.0
18/04:00am 4.9 -0.2 -5.4 47 3.4 NNE 13 15 7 8 1017.4 1017.3 0.0
18/03:30am 4.4 -0.7 -5.6 48 3.3 NE 13 15 7 8 1017.4 1017.3 0.0
18/03:00am 4.1 -1.1 -6.2 47 3.3 NE 13 13 7 7 1017.4 1017.3 0.0
18/02:30am 3.8 -0.3 -6.7 46 3.3 E 7 7 4 4 1017.7 1017.6 0.0
18/02:00am 4.9 2.2 -6.3 44 3.7 CALM 0 2 0 1 1017.9 1017.8 0.0
18/01:30am 4.3 -0.2 -6.9 44 3.6 NE 9 9 5 5 1017.9 1017.8 0.0
18/01:00am 4.2 -0.3 -6.9 44 3.5 NE 9 11 5 6 1018.2 1018.2 0.0
18/12:30am 4.7 0.7 -7.1 42 3.8 ENE 6 7 3 4 1018.5 1018.5 0.0
18/12:00am 5.4 0.9 -6.8 41 4.0 ENE 9 9 5 5 1018.7 1018.7 0.0
 
Date/Time
EST
Temp
°C
App
Temp
°C
Dew
Point
°C
Rel
Hum
%
Delta-T
°C
Wind Press
QNH
hPa
Press
MSL
hPa
Rain since
9am
mm
Dir  Spd
km/h
Gust
km/h
Spd
kts
Gust
kts
17/11:30pm 5.8 1.9 -6.7 40 4.1 ENE 6 9 3 5 1019.0 1019.0 0.0
17/11:00pm 6.1 3.3 -6.5 40 4.2 CALM 0 6 0 3 1019.2 1019.2 0.0

Other Formats:

Comma delimited format used in spreadsheet applications
http://www.bom.gov.au/fwo/IDN60801/IDN60801.95708.axf

JavaScript Object Notation format (JSON) in row-major order
http://www.bom.gov.au/fwo/IDN60801/IDN60801.95708.json